createdAt,value
2022-12-11T00:00:51.678Z,0.00
2022-12-11T00:03:18.906Z,0.03
2022-12-11T00:05:45.956Z,-0.07
2022-12-11T00:08:14.165Z,0.08
2022-12-11T00:10:47.958Z,-0.08
2022-12-11T00:13:14.456Z,-0.14
2022-12-11T00:15:41.101Z,-0.16
2022-12-11T00:18:09.572Z,-0.08
2022-12-11T00:20:37.899Z,-0.06
2022-12-11T00:23:04.906Z,-0.13
2022-12-11T00:25:31.389Z,-0.38
2022-12-11T00:27:57.955Z,-0.36
2022-12-11T00:30:24.453Z,-0.36
2022-12-11T00:32:54.130Z,-0.41
2022-12-11T00:35:20.639Z,-0.40
2022-12-11T00:37:47.139Z,-0.35
2022-12-11T00:40:13.772Z,-0.59
2022-12-11T00:42:40.289Z,-0.63
2022-12-11T00:45:07.674Z,-0.39
2022-12-11T00:47:34.379Z,-0.30
2022-12-11T00:50:00.921Z,-0.45
2022-12-11T00:52:27.489Z,-0.47
2022-12-11T00:54:54.023Z,-0.45
2022-12-11T00:57:20.596Z,-0.49
2022-12-11T00:59:47.146Z,-0.59
2022-12-11T01:02:14.265Z,-0.73
2022-12-11T01:04:40.891Z,-0.58
2022-12-11T01:07:07.497Z,-0.61
2022-12-11T01:09:33.992Z,-0.84
2022-12-11T01:12:00.629Z,-0.96
2022-12-11T01:14:27.618Z,-0.88
2022-12-11T01:16:54.328Z,-0.88
2022-12-11T01:19:20.929Z,-0.94
2022-12-11T01:21:47.919Z,-1.00
2022-12-11T01:24:14.520Z,-1.05
2022-12-11T01:26:40.977Z,-1.09
2022-12-11T01:29:07.506Z,-1.04
2022-12-11T01:31:33.991Z,-1.10
2022-12-11T01:34:00.591Z,-0.87
2022-12-11T01:36:27.109Z,-0.99
2022-12-11T01:38:53.604Z,-0.93
2022-12-11T01:41:20.280Z,-1.05
2022-12-11T01:44:05.684Z,-1.24
2022-12-11T01:46:34.640Z,-1.28
2022-12-11T01:49:04.768Z,-1.31
2022-12-11T01:51:32.873Z,-1.42
2022-12-11T01:54:03.718Z,-1.34
2022-12-11T01:56:31.291Z,-1.43
2022-12-11T01:59:00.234Z,-1.37
2022-12-11T02:01:45.677Z,-1.48
2022-12-11T02:04:13.621Z,-1.44
2022-12-11T02:06:48.758Z,-1.34
2022-12-11T02:09:43.493Z,-1.37
2022-12-11T02:12:36.400Z,-1.45
2022-12-11T02:15:15.753Z,-1.48
2022-12-11T02:18:05.481Z,-1.47
2022-12-11T02:20:46.093Z,-1.53
2022-12-11T02:23:12.542Z,-1.31
2022-12-11T02:25:48.088Z,-1.25
2022-12-11T02:28:26.199Z,-1.40
2022-12-11T02:30:59.304Z,-1.29
2022-12-11T02:33:34.169Z,-1.20
2022-12-11T02:36:00.992Z,-1.38
2022-12-11T02:38:33.730Z,-1.36
2022-12-11T02:41:01.180Z,-1.33
2022-12-11T02:43:30.265Z,-1.46
2022-12-11T02:45:57.650Z,-1.38
2022-12-11T02:48:24.345Z,-1.43
2022-12-11T02:50:53.368Z,-1.45
2022-12-11T02:53:23.954Z,-1.43
2022-12-11T02:55:51.472Z,-1.43
2022-12-11T02:58:22.214Z,-1.31
2022-12-11T03:00:48.834Z,-1.17
2022-12-11T03:03:15.388Z,-1.26
2022-12-11T03:05:43.415Z,-1.29
2022-12-11T03:08:10.470Z,-1.33
2022-12-11T03:10:37.153Z,-1.16
2022-12-11T03:13:05.847Z,-1.34
2022-12-11T03:16:07.145Z,-1.19
2022-12-11T03:18:35.145Z,-1.22
2022-12-11T03:21:04.748Z,-1.16
2022-12-11T03:23:37.490Z,-1.41
2022-12-11T03:26:06.974Z,-1.23
2022-12-11T03:28:47.089Z,-1.22
2022-12-11T03:31:23.119Z,-1.41
2022-12-11T03:33:52.017Z,-1.38
2022-12-11T03:36:23.742Z,-1.52
2022-12-11T03:38:54.129Z,-1.34
2022-12-11T03:41:25.940Z,-1.37
2022-12-11T03:43:59.714Z,-1.27
2022-12-11T03:46:35.299Z,-1.26
2022-12-11T03:49:05.885Z,-1.32
2022-12-11T03:51:32.961Z,-1.33
2022-12-11T03:54:00.002Z,-1.17
2022-12-11T03:56:29.402Z,-1.21
2022-12-11T03:58:56.001Z,-1.05
2022-12-11T04:01:22.659Z,-0.92
2022-12-11T04:03:49.297Z,-1.18
2022-12-11T04:06:15.837Z,-0.96
2022-12-11T04:08:42.314Z,-0.91
2022-12-11T04:11:09.860Z,-0.78
2022-12-11T04:13:59.217Z,-0.85
2022-12-11T04:16:39.824Z,-0.88
2022-12-11T04:19:26.582Z,-1.05
2022-12-11T04:21:53.627Z,-0.81
2022-12-11T04:24:20.547Z,-0.70
2022-12-11T04:26:47.319Z,-0.55
2022-12-11T04:29:14.927Z,-0.50
2022-12-11T04:31:41.559Z,-0.60
2022-12-11T04:34:08.136Z,-0.60
2022-12-11T04:36:34.896Z,-0.62
2022-12-11T04:39:05.593Z,-0.78
2022-12-11T04:41:31.961Z,-0.70
2022-12-11T04:43:58.541Z,-0.61
2022-12-11T04:46:25.615Z,-0.41
2022-12-11T04:48:57.301Z,-0.35
2022-12-11T04:51:24.850Z,-0.30
2022-12-11T04:53:51.606Z,-0.28
2022-12-11T04:56:18.348Z,-0.20
2022-12-11T04:58:45.608Z,-0.22
2022-12-11T05:01:17.626Z,-0.14
2022-12-11T05:03:44.230Z,-0.05
2022-12-11T05:06:11.261Z,-0.13
2022-12-11T05:08:39.758Z,0.01
2022-12-11T05:11:08.111Z,-0.09
2022-12-11T05:13:34.669Z,-0.25
2022-12-11T05:16:04.848Z,-0.55
2022-12-11T05:18:31.488Z,-0.49
2022-12-11T05:20:59.956Z,-0.52
2022-12-11T05:23:26.846Z,-0.43
2022-12-11T05:25:54.529Z,-0.25
2022-12-11T05:28:22.734Z,-0.34
2022-12-11T05:30:49.230Z,-0.19
2022-12-11T05:33:15.994Z,-0.44
2022-12-11T05:35:47.541Z,-0.86
2022-12-11T05:38:14.213Z,-1.05
2022-12-11T05:40:40.775Z,-1.17
2022-12-11T05:43:07.393Z,-1.09
2022-12-11T05:45:34.220Z,-1.26
2022-12-11T05:48:01.302Z,-1.13
2022-12-11T05:50:28.221Z,-1.16
2022-12-11T05:52:57.967Z,-1.17
2022-12-11T05:55:24.493Z,-1.33
2022-12-11T05:57:51.069Z,-1.26
2022-12-11T06:00:17.549Z,-1.53
2022-12-11T06:02:44.179Z,-1.54
2022-12-11T06:05:11.339Z,-1.70
2022-12-11T06:07:41.466Z,-2.16
2022-12-11T06:10:08.361Z,-2.20
2022-12-11T06:12:34.837Z,-2.21
2022-12-11T06:15:01.315Z,-2.28
2022-12-11T06:17:27.798Z,-2.27
2022-12-11T06:19:54.328Z,-2.32
2022-12-11T06:22:20.882Z,-2.33
2022-12-11T06:24:47.397Z,-2.33
2022-12-11T06:27:14.552Z,-2.32
2022-12-11T06:29:41.189Z,-2.33
2022-12-11T06:32:13.309Z,-2.32
2022-12-11T06:34:40.463Z,-2.31
2022-12-11T06:37:07.129Z,-2.23
2022-12-11T06:39:33.670Z,-2.31
2022-12-11T06:42:00.324Z,-2.27
2022-12-11T06:44:28.962Z,-2.37
2022-12-11T06:46:55.525Z,-2.36
2022-12-11T06:49:22.337Z,-2.32
2022-12-11T06:51:48.925Z,-2.48
2022-12-11T06:54:15.525Z,-2.40
2022-12-11T06:56:42.066Z,-2.48
2022-12-11T06:59:11.672Z,-2.54
2022-12-11T07:01:39.541Z,-2.53
2022-12-11T07:04:06.030Z,-2.59
2022-12-11T07:06:33.577Z,-2.64
2022-12-11T07:09:00.088Z,-2.65
2022-12-11T07:11:26.583Z,-2.74
2022-12-11T07:13:53.324Z,-2.85
2022-12-11T07:16:20.070Z,-2.75
2022-12-11T07:18:49.304Z,-2.81
2022-12-11T07:21:15.973Z,-2.83
2022-12-11T07:23:42.621Z,-2.87
2022-12-11T07:26:12.332Z,-2.83
2022-12-11T07:28:39.232Z,-2.84
2022-12-11T07:31:07.709Z,-2.89
2022-12-11T07:33:34.676Z,-2.91
2022-12-11T07:36:05.301Z,-3.01
2022-12-11T07:38:31.736Z,-3.10
2022-12-11T07:41:02.522Z,-3.10
2022-12-11T07:43:29.763Z,-3.06
2022-12-11T07:46:05.084Z,-2.95
2022-12-11T07:48:32.265Z,-2.86
2022-12-11T07:51:09.949Z,-2.90
2022-12-11T07:53:36.590Z,-2.91
2022-12-11T07:56:03.924Z,-2.79
2022-12-11T07:58:30.584Z,-2.91
2022-12-11T08:00:57.263Z,-2.90
2022-12-11T08:03:24.326Z,-2.85
2022-12-11T08:05:51.641Z,-2.92
2022-12-11T08:08:18.984Z,-2.85
2022-12-11T08:10:45.950Z,-2.88
2022-12-11T08:13:12.520Z,-2.82
2022-12-11T08:15:39.500Z,-2.87
2022-12-11T08:18:08.959Z,-2.84
2022-12-11T08:20:38.008Z,-2.83
2022-12-11T08:23:05.569Z,-2.92
2022-12-11T08:25:32.170Z,-2.90
2022-12-11T08:27:58.659Z,-2.79
2022-12-11T08:30:28.403Z,-2.76
2022-12-11T08:32:55.743Z,-2.69
2022-12-11T08:35:22.225Z,-2.69
2022-12-11T08:37:48.914Z,-2.67
2022-12-11T08:40:18.742Z,-2.62
2022-12-11T08:42:45.378Z,-2.73
2022-12-11T08:45:12.424Z,-2.78
2022-12-11T08:47:38.996Z,-2.73
2022-12-11T08:50:06.225Z,-2.72
2022-12-11T08:52:34.833Z,-2.68
2022-12-11T08:55:01.454Z,-2.63
2022-12-11T08:57:30.204Z,-2.51
2022-12-11T08:59:56.714Z,-2.50
2022-12-11T09:02:32.483Z,-2.49
2022-12-11T09:05:01.634Z,-2.43
2022-12-11T09:07:28.127Z,-2.41
2022-12-11T09:09:55.266Z,-2.24
2022-12-11T09:12:21.702Z,-2.24
2022-12-11T09:14:48.211Z,-2.26
2022-12-11T09:17:14.934Z,-2.29
2022-12-11T09:19:41.501Z,-2.25
2022-12-11T09:22:08.426Z,-2.07
2022-12-11T09:24:35.050Z,-1.97
2022-12-11T09:27:03.882Z,-1.89
2022-12-11T09:29:30.384Z,-1.84
2022-12-11T09:31:56.954Z,-1.79
2022-12-11T09:34:29.245Z,-1.71
2022-12-11T09:36:56.863Z,-1.59
2022-12-11T09:39:23.503Z,-1.55
2022-12-11T09:41:49.897Z,-1.33
2022-12-11T09:44:20.925Z,-1.28
2022-12-11T09:46:48.612Z,-1.44
2022-12-11T09:49:35.875Z,-1.45
2022-12-11T09:52:21.019Z,-1.34
2022-12-11T09:54:57.110Z,-1.34
2022-12-11T09:57:45.737Z,-1.37
2022-12-11T10:00:44.267Z,-1.33
2022-12-11T10:03:22.810Z,-1.22
2022-12-11T10:06:22.461Z,-1.37
2022-12-11T10:09:00.393Z,-1.25
2022-12-11T10:11:38.649Z,-1.25
2022-12-11T10:14:14.209Z,-1.24
2022-12-11T10:17:00.880Z,-1.28
2022-12-11T10:19:29.893Z,-1.34
2022-12-11T10:21:57.393Z,-1.09
2022-12-11T10:25:10.216Z,-1.16
2022-12-11T10:27:30.602Z,-1.10
2022-12-11T10:30:22.801Z,-0.95
2022-12-11T10:34:03.491Z,-1.08
2022-12-11T10:36:32.703Z,-0.89
2022-12-11T10:38:59.226Z,-0.96
2022-12-11T10:41:39.745Z,-0.88
2022-12-11T10:44:32.657Z,-0.82
2022-12-11T10:47:09.922Z,-0.93
2022-12-11T10:49:38.105Z,-0.92
2022-12-11T10:52:12.577Z,-0.89
2022-12-11T10:54:44.470Z,-0.76
2022-12-11T10:57:14.285Z,-0.45
2022-12-11T10:59:44.906Z,-0.47
2022-12-11T11:02:29.281Z,-0.30
2022-12-11T11:04:57.893Z,-0.15
2022-12-11T11:07:29.959Z,-0.07
2022-12-11T11:10:11.787Z,0.40
2022-12-11T11:12:41.248Z,0.30
2022-12-11T11:15:18.069Z,0.50
2022-12-11T11:17:55.762Z,0.52
2022-12-11T11:20:30.522Z,0.66
2022-12-11T11:23:00.234Z,0.52
2022-12-11T11:25:31.510Z,0.70
2022-12-11T11:28:01.447Z,0.66
2022-12-11T11:30:31.168Z,0.62
2022-12-11T11:33:14.396Z,0.37
2022-12-11T11:35:54.399Z,0.47
2022-12-11T11:38:28.550Z,0.52
2022-12-11T11:40:59.419Z,0.57
2022-12-11T11:43:38.250Z,0.66
2022-12-11T11:46:21.378Z,0.72
2022-12-11T11:49:03.773Z,0.63
2022-12-11T11:51:36.316Z,0.36
2022-12-11T11:54:28.483Z,0.60
2022-12-11T11:56:56.742Z,0.73
2022-12-11T11:59:30.865Z,0.48
2022-12-11T12:01:57.933Z,0.45
2022-12-11T12:04:26.408Z,0.27
2022-12-11T12:07:07.002Z,0.45
2022-12-11T12:09:52.368Z,0.24
2022-12-11T12:12:46.863Z,0.20
2022-12-11T12:15:35.849Z,0.28
2022-12-11T12:18:29.558Z,0.26
2022-12-11T12:21:14.791Z,0.43
2022-12-11T12:24:02.818Z,0.28
2022-12-11T12:26:29.526Z,0.15
2022-12-11T12:29:05.470Z,0.26
2022-12-11T12:31:44.276Z,0.54
2022-12-11T12:34:32.450Z,0.79
2022-12-11T12:37:37.923Z,0.59
2022-12-11T12:40:07.461Z,0.81
2022-12-11T12:42:50.565Z,0.76
2022-12-11T12:45:33.007Z,0.93
2022-12-11T12:47:59.706Z,1.24
2022-12-11T12:50:31.997Z,1.20
2022-12-11T12:52:58.756Z,1.25
2022-12-11T12:55:27.695Z,1.46
2022-12-11T12:58:02.233Z,1.50
2022-12-11T13:00:43.464Z,1.39
2022-12-11T13:03:15.505Z,1.23
2022-12-11T13:05:44.709Z,1.05
2022-12-11T13:08:12.450Z,1.01
2022-12-11T13:10:41.973Z,0.90
2022-12-11T13:13:38.867Z,0.75
2022-12-11T13:16:25.382Z,0.93
2022-12-11T13:18:52.252Z,1.14
2022-12-11T13:21:36.191Z,1.40
2022-12-11T13:24:14.901Z,1.57
2022-12-11T13:26:44.034Z,1.66
2022-12-11T13:29:31.352Z,1.45
2022-12-11T13:32:00.647Z,1.73
2022-12-11T13:34:32.023Z,1.82
2022-12-11T13:36:59.535Z,1.67
2022-12-11T13:39:28.104Z,1.50
2022-12-11T13:42:00.628Z,1.68
2022-12-11T13:44:32.059Z,1.26
2022-12-11T13:47:00.903Z,1.54
2022-12-11T13:49:35.229Z,1.52
2022-12-11T13:52:02.610Z,1.53
2022-12-11T13:54:30.872Z,1.30
2022-12-11T13:57:06.674Z,1.10
2022-12-11T13:59:40.896Z,0.86
2022-12-11T14:02:21.053Z,1.00
2022-12-11T14:04:50.040Z,1.00
2022-12-11T14:07:23.275Z,0.94
2022-12-11T14:09:50.137Z,0.88
2022-12-11T14:12:19.093Z,0.86
2022-12-11T14:14:57.931Z,0.77
2022-12-11T14:17:27.427Z,0.79
2022-12-11T14:19:56.494Z,0.80
2022-12-11T14:22:25.853Z,0.66
2022-12-11T14:24:55.005Z,0.73
2022-12-11T14:27:22.382Z,0.75
2022-12-11T14:29:49.385Z,0.49
2022-12-11T14:32:32.306Z,0.33
2022-12-11T14:34:59.892Z,0.15
2022-12-11T14:37:26.674Z,0.30
2022-12-11T14:40:14.937Z,0.04
2022-12-11T14:42:45.907Z,0.10
2022-12-11T14:45:23.078Z,-0.02
2022-12-11T14:47:50.371Z,-0.12
2022-12-11T14:50:34.999Z,-0.05
2022-12-11T14:53:32.763Z,0.04
2022-12-11T14:56:02.914Z,-0.09
2022-12-11T14:58:30.062Z,-0.19
2022-12-11T15:01:20.692Z,-0.31
2022-12-11T15:03:47.176Z,-0.22
2022-12-11T15:06:26.072Z,-0.34
2022-12-11T15:08:53.755Z,-0.54
2022-12-11T15:11:20.512Z,-0.66
2022-12-11T15:13:57.926Z,-0.58
2022-12-11T15:16:26.126Z,-0.49
2022-12-11T15:18:54.102Z,-0.62
2022-12-11T15:21:34.814Z,-0.69
2022-12-11T15:24:04.412Z,-0.78
2022-12-11T15:26:36.970Z,-0.68
2022-12-11T15:29:06.923Z,-0.76
2022-12-11T15:31:34.826Z,-0.70
2022-12-11T15:34:01.945Z,-0.79
2022-12-11T15:36:32.794Z,-0.83
2022-12-11T15:38:59.305Z,-0.90
2022-12-11T15:41:25.858Z,-0.98
2022-12-11T15:43:58.541Z,-1.13
2022-12-11T15:46:25.572Z,-1.25
2022-12-11T15:48:52.203Z,-1.26
2022-12-11T15:51:18.763Z,-1.28
2022-12-11T15:53:45.276Z,-1.29
2022-12-11T15:56:20.629Z,-1.48
2022-12-11T15:58:51.322Z,-1.49
2022-12-11T16:01:18.287Z,-1.45
2022-12-11T16:03:45.945Z,-1.77
2022-12-11T16:06:14.565Z,-1.78
2022-12-11T16:08:41.162Z,-1.84
2022-12-11T16:11:07.702Z,-1.94
2022-12-11T16:13:34.239Z,-2.02
2022-12-11T16:16:00.951Z,-1.95
2022-12-11T16:18:27.528Z,-2.15
2022-12-11T16:20:55.520Z,-2.10
2022-12-11T16:23:22.070Z,-2.15
2022-12-11T16:25:48.879Z,-2.05
2022-12-11T16:28:17.946Z,-2.17
2022-12-11T16:30:44.723Z,-2.18
2022-12-11T16:33:13.394Z,-2.35
2022-12-11T16:35:41.065Z,-2.33
2022-12-11T16:38:10.951Z,-2.34
2022-12-11T16:40:37.883Z,-2.36
2022-12-11T16:43:08.142Z,-2.23
2022-12-11T16:45:34.701Z,-2.31
2022-12-11T16:48:04.504Z,-2.35
2022-12-11T16:50:31.174Z,-2.44
2022-12-11T16:52:57.718Z,-2.41
2022-12-11T16:55:24.218Z,-2.50
2022-12-11T16:57:50.759Z,-2.46
2022-12-11T17:00:17.520Z,-2.53
2022-12-11T17:02:44.069Z,-2.61
2022-12-11T17:05:11.185Z,-2.74
2022-12-11T17:07:38.145Z,-2.69
2022-12-11T17:10:04.957Z,-2.77
2022-12-11T17:12:31.573Z,-2.85
2022-12-11T17:14:58.202Z,-2.77
2022-12-11T17:17:25.014Z,-2.69
2022-12-11T17:19:51.681Z,-2.67
2022-12-11T17:22:18.368Z,-2.73
2022-12-11T17:24:45.151Z,-2.71
2022-12-11T17:27:11.868Z,-2.72
2022-12-11T17:29:38.444Z,-2.59
2022-12-11T17:32:05.321Z,-2.61
2022-12-11T17:34:37.605Z,-2.61
2022-12-11T17:37:05.165Z,-2.55
2022-12-11T17:39:31.896Z,-2.51
2022-12-11T17:41:59.644Z,-2.37
2022-12-11T17:44:26.837Z,-2.35
2022-12-11T17:46:55.093Z,-2.25
2022-12-11T17:49:21.583Z,-2.21
2022-12-11T17:51:48.093Z,-2.06
2022-12-11T17:54:29.487Z,-1.93
2022-12-11T17:56:56.060Z,-2.06
2022-12-11T17:59:22.787Z,-2.01
2022-12-11T18:01:49.397Z,-1.93
2022-12-11T18:04:18.671Z,-1.89
2022-12-11T18:06:45.240Z,-1.85
2022-12-11T18:09:11.808Z,-1.86
2022-12-11T18:11:38.342Z,-1.85
2022-12-11T18:14:05.081Z,-1.79
2022-12-11T18:16:39.031Z,-1.87
2022-12-11T18:19:06.160Z,-1.93
2022-12-11T18:21:34.272Z,-1.87
2022-12-11T18:24:03.941Z,-1.92
2022-12-11T18:26:30.510Z,-1.90
2022-12-11T18:28:57.096Z,-1.86
2022-12-11T18:31:24.244Z,-2.03
2022-12-11T18:33:51.013Z,-2.07
2022-12-11T18:36:21.180Z,-2.16
2022-12-11T18:38:48.038Z,-2.35
2022-12-11T18:41:16.069Z,-2.37
2022-12-11T18:43:42.856Z,-2.56
2022-12-11T18:46:11.892Z,-2.48
2022-12-11T18:48:38.557Z,-2.61
2022-12-11T18:51:08.174Z,-2.69
2022-12-11T18:53:34.911Z,-2.72
2022-12-11T18:56:06.203Z,-2.74
2022-12-11T18:58:35.229Z,-2.63
2022-12-11T19:01:08.698Z,-2.69
2022-12-11T19:03:35.629Z,-2.76
2022-12-11T19:06:09.869Z,-2.72
2022-12-11T19:08:36.601Z,-2.65
2022-12-11T19:11:03.739Z,-2.68
2022-12-11T19:13:30.245Z,-2.67
2022-12-11T19:15:56.794Z,-2.65
2022-12-11T19:18:23.342Z,-2.78
2022-12-11T19:20:54.693Z,-2.75
2022-12-11T19:23:24.509Z,-2.75
2022-12-11T19:25:51.110Z,-2.67
2022-12-11T19:28:23.160Z,-2.70
2022-12-11T19:30:50.894Z,-2.73
2022-12-11T19:33:17.410Z,-2.70
2022-12-11T19:35:46.649Z,-2.61
2022-12-11T19:38:16.234Z,-2.59
2022-12-11T19:40:44.365Z,-2.53
2022-12-11T19:43:11.193Z,-2.45
2022-12-11T19:45:37.822Z,-2.53
2022-12-11T19:48:04.699Z,-2.49
2022-12-11T19:50:31.316Z,-2.49
2022-12-11T19:52:57.857Z,-2.52
2022-12-11T19:55:24.500Z,-2.56
2022-12-11T19:57:53.998Z,-2.60
2022-12-11T20:00:20.577Z,-2.59
2022-12-11T20:02:47.218Z,-2.54
2022-12-11T20:05:14.073Z,-2.50
2022-12-11T20:07:41.412Z,-2.43
2022-12-11T20:10:08.488Z,-2.35
2022-12-11T20:12:34.990Z,-2.14
2022-12-11T20:15:01.632Z,-2.25
2022-12-11T20:17:28.596Z,-2.18
2022-12-11T20:19:55.131Z,-1.99
2022-12-11T20:22:21.625Z,-1.88
2022-12-11T20:24:48.113Z,-1.76
2022-12-11T20:27:14.638Z,-1.64
2022-12-11T20:29:41.441Z,-1.47
2022-12-11T20:32:07.983Z,-1.30
2022-12-11T20:34:34.710Z,-1.29
2022-12-11T20:37:01.250Z,-1.16
2022-12-11T20:39:33.916Z,-1.25
2022-12-11T20:42:00.510Z,-1.29
2022-12-11T20:44:27.083Z,-1.27
2022-12-11T20:46:53.631Z,-1.41
2022-12-11T20:49:20.183Z,-1.39
2022-12-11T20:51:46.819Z,-1.27
2022-12-11T20:54:13.358Z,-0.89
2022-12-11T20:56:39.956Z,-0.90
2022-12-11T20:59:06.628Z,-0.81
2022-12-11T21:01:33.199Z,-1.09
2022-12-11T21:04:05.717Z,-1.17
2022-12-11T21:06:34.695Z,-0.95
2022-12-11T21:09:04.609Z,-1.08
2022-12-11T21:11:31.128Z,-1.08
2022-12-11T21:13:57.621Z,-1.17
2022-12-11T21:16:24.495Z,-1.11
2022-12-11T21:18:51.079Z,-1.05
2022-12-11T21:21:17.953Z,-0.97
2022-12-11T21:23:45.151Z,-1.06
2022-12-11T21:26:12.281Z,-1.04
2022-12-11T21:28:38.841Z,-1.20
2022-12-11T21:31:08.039Z,-1.09
2022-12-11T21:33:35.288Z,-1.16
2022-12-11T21:36:02.166Z,-1.32
2022-12-11T21:38:29.043Z,-1.26
2022-12-11T21:40:57.377Z,-1.29
2022-12-11T21:43:24.465Z,-1.14
2022-12-11T21:46:06.967Z,-1.13
2022-12-11T21:48:33.737Z,-1.17
2022-12-11T21:51:14.237Z,-0.98
2022-12-11T21:53:41.158Z,-1.22
2022-12-11T21:56:14.055Z,-1.21
2022-12-11T21:58:41.892Z,-1.15
2022-12-11T22:01:19.564Z,-1.09
2022-12-11T22:03:46.515Z,-1.06
2022-12-11T22:06:13.028Z,-1.24
2022-12-11T22:08:40.183Z,-1.35
2022-12-11T22:11:07.268Z,-1.33
2022-12-11T22:13:34.497Z,-1.17
2022-12-11T22:16:01.132Z,-1.20
2022-12-11T22:18:27.801Z,-1.11
2022-12-11T22:20:54.735Z,-1.17
2022-12-11T22:23:21.902Z,-1.01
2022-12-11T22:25:48.573Z,-0.84
2022-12-11T22:28:15.261Z,-0.80
2022-12-11T22:30:42.268Z,-0.74
2022-12-11T22:33:08.797Z,-0.59
2022-12-11T22:35:36.155Z,-0.46
2022-12-11T22:38:04.250Z,-0.36
2022-12-11T22:40:31.283Z,-0.32
2022-12-11T22:43:01.289Z,-0.22
2022-12-11T22:45:27.822Z,-0.22
2022-12-11T22:47:54.389Z,-0.19
2022-12-11T22:50:20.903Z,0.02
2022-12-11T22:52:47.722Z,-0.08
2022-12-11T22:55:14.540Z,0.17
2022-12-11T22:57:41.443Z,0.23
2022-12-11T23:00:10.445Z,0.13
2022-12-11T23:02:42.424Z,0.17
2022-12-11T23:05:10.775Z,-0.12
2022-12-11T23:07:38.149Z,-0.18
2022-12-11T23:10:06.784Z,0.05
2022-12-11T23:12:33.791Z,-0.02
2022-12-11T23:15:00.333Z,-0.15
2022-12-11T23:17:26.898Z,-0.17
2022-12-11T23:19:53.806Z,-0.17
2022-12-11T23:22:20.387Z,-0.31
2022-12-11T23:24:47.077Z,-0.41
2022-12-11T23:27:15.258Z,-0.42
2022-12-11T23:29:41.866Z,-0.51
2022-12-11T23:32:08.485Z,-0.57
2022-12-11T23:34:35.004Z,-0.70
2022-12-11T23:37:01.652Z,-0.78
2022-12-11T23:39:28.407Z,-0.77
2022-12-11T23:41:54.890Z,-0.71
2022-12-11T23:44:21.515Z,-0.59
2022-12-11T23:46:48.013Z,-0.61
2022-12-11T23:49:14.603Z,-0.73
2022-12-11T23:51:41.129Z,-0.75
2022-12-11T23:54:07.646Z,-0.79
2022-12-11T23:56:34.153Z,-0.74
2022-12-11T23:59:00.629Z,-0.62
